NCAR-RAP Real-Time Weather Data

Output produced by METARs form (23 January 2018  15:47 UTC)
found at http://weather.rap.ucar.edu/surface/
 
RJKA 231000Z 01012KT 9999 FEW035 SCT040 16/09 Q1017
 
ROAH 231530Z 03008KT 9999 FEW030 BKN070 17/12 Q1017
 
RODN 231456Z AUTO 04007KT 10SM OVC085 16/13 A3005 RMK AO2 SLP183 T01560125 402010113 55001
 
ROIG 231100Z 02008KT 9999 SCT026 BKN032 20/15 Q1015
 
ROMY 231100Z 05009KT 9999 SCT020 BKN/// 19/15 Q1016
 
RORS 231000Z 05013KT 9999 FEW020 19/15 Q1015